Flugplatz Allendorf/Eder

Für EDFQ sind keine METAR/TAF Berichte vorhanden.
Es werden die Flugwettermeldungen vom Flugplatz Fritzlar Airport in 43 km Entfernung angezeigt.

Bericht für ETHF

vom 23.02. um 23:20 UTC

Wind 11 kt aus 290°

Sichtweite 10 km oder mehr

aufgelockert bewölkt in 3600 ft

Temperatur 5.0°C

Taupunkt -1.0°C

Luftfeuchtigkeit 65%

Luftdruck 1021 hPa

ETHF 232320Z 29011KT 9999 SCT036 05/M01 Q1021 BLU+
Keine Prognose (TAF) verfügbar.
Impressum